Terminal Aerodrome Forecast
Issued by NWS

Home | Current Version | Previous Version | Text Only | Print | Product List | Glossary On
Versions: 1 2 3 4 5 6 7 8 9 10 11 12 13 14 15 16 17 18 19 20 21 22 23 24 25 26 27 28 29 30 31 32 33
000
FTUS46 KOTX 300101 AAA
TAFSFF
TAF AMD
KSFF 300101Z 3001/3024 24012G18KT 3SM BLDU BKN030 BKN120
     FM300300 22006KT P6SM SCT080 SCT150
     FM301500 22012G20KT 6SM -SHRA SCT040 BKN060 OVC080
     FM301800 22016G24KT P6SM VCSH FEW040 BKN060=

USA.gov is the U.S. government's official web portal to all federal, state and local government web resources and services.